createdAt,value
2019-05-18T00:00:29.011Z,100622.84
2019-05-18T00:02:57.489Z,100618.05
2019-05-18T00:05:26.019Z,100618.14
2019-05-18T00:07:54.517Z,100624.86
2019-05-18T00:10:23.017Z,100616.08
2019-05-18T00:12:51.500Z,100617.23
2019-05-18T00:15:19.993Z,100620.67
2019-05-18T00:17:48.476Z,100616.59
2019-05-18T00:20:17.041Z,100617.81
2019-05-18T00:22:45.531Z,100615.94
2019-05-18T00:25:14.298Z,100616.55
2019-05-18T00:27:42.812Z,100619.37
2019-05-18T00:30:11.354Z,100617.48
2019-05-18T00:32:39.833Z,100623.45
2019-05-18T00:35:08.633Z,100618.00
2019-05-18T00:37:37.150Z,100620.73
2019-05-18T00:40:06.583Z,100626.78
2019-05-18T00:42:35.072Z,100615.28
2019-05-18T00:45:03.613Z,100611.49
2019-05-18T00:47:40.956Z,100609.09
2019-05-18T00:50:02.553Z,100611.39
2019-05-18T00:52:31.052Z,100610.78
2019-05-18T00:54:59.552Z,100612.89
2019-05-18T00:57:28.138Z,100614.12
2019-05-18T00:59:56.642Z,100610.88
2019-05-18T01:02:25.134Z,100609.84
2019-05-18T01:04:53.655Z,100609.52
2019-05-18T01:07:22.168Z,100608.16
2019-05-18T01:09:50.910Z,100609.31
2019-05-18T01:12:19.407Z,100605.63
2019-05-18T01:14:47.905Z,100605.63
2019-05-18T01:17:16.707Z,100601.31
2019-05-18T01:19:45.177Z,100600.50
2019-05-18T01:22:13.688Z,100604.03
2019-05-18T01:24:42.199Z,100601.62
2019-05-18T01:27:10.704Z,100598.72
2019-05-18T01:29:39.424Z,100598.86
2019-05-18T01:32:07.932Z,100595.61
2019-05-18T01:34:36.775Z,100596.13
2019-05-18T01:37:05.253Z,100601.81
2019-05-18T01:39:33.764Z,100595.20
2019-05-18T01:42:02.338Z,100593.74
2019-05-18T01:44:30.791Z,100598.67
2019-05-18T01:46:59.272Z,100587.39
2019-05-18T01:49:27.778Z,100584.88
2019-05-18T01:51:56.308Z,100581.31
2019-05-18T01:54:24.830Z,100581.77
2019-05-18T01:56:53.301Z,100578.81
2019-05-18T01:59:21.789Z,100576.00
2019-05-18T02:01:50.282Z,100581.86
2019-05-18T02:04:18.751Z,100585.56
2019-05-18T02:06:47.245Z,100586.08
2019-05-18T02:09:15.737Z,100580.41
2019-05-18T02:11:44.217Z,100581.86
2019-05-18T02:14:12.688Z,100583.13
2019-05-18T02:16:41.462Z,100578.30
2019-05-18T02:19:09.962Z,100577.78
2019-05-18T02:21:38.438Z,100581.62
2019-05-18T02:24:07.213Z,100576.50
2019-05-18T02:26:35.684Z,100578.39
2019-05-18T02:29:04.228Z,100582.77
2019-05-18T02:31:32.692Z,100582.24
2019-05-18T02:34:01.184Z,100581.62
2019-05-18T02:36:29.956Z,100579.42
2019-05-18T02:38:58.446Z,100582.28
2019-05-18T02:41:26.982Z,100578.33
2019-05-18T02:43:55.464Z,100581.67
2019-05-18T02:46:23.937Z,100584.23
2019-05-18T02:48:52.507Z,100581.61
2019-05-18T02:51:21.018Z,100579.87
2019-05-18T02:53:49.518Z,100578.09
2019-05-18T02:56:18.013Z,100578.41
2019-05-18T02:58:46.564Z,100575.88
2019-05-18T03:01:15.086Z,100574.01
2019-05-18T03:03:43.579Z,100571.61
2019-05-18T03:06:12.077Z,100567.20
2019-05-18T03:08:40.898Z,100572.35
2019-05-18T03:11:09.716Z,100569.53
2019-05-18T03:13:38.164Z,100568.56
2019-05-18T03:16:06.638Z,100565.84
2019-05-18T03:18:35.123Z,100572.13
2019-05-18T03:21:03.772Z,100569.41
2019-05-18T03:23:32.204Z,100567.95
2019-05-18T03:26:00.698Z,100566.39
2019-05-18T03:28:29.223Z,100569.56
2019-05-18T03:30:57.708Z,100568.20
2019-05-18T03:33:29.333Z,100576.79
2019-05-18T03:35:56.415Z,100570.41
2019-05-18T03:38:24.908Z,100576.47
2019-05-18T03:40:53.705Z,100568.02
2019-05-18T03:43:22.166Z,100570.12
2019-05-18T03:45:50.668Z,100567.69
2019-05-18T03:48:19.453Z,100570.64
2019-05-18T03:50:47.958Z,100562.15
2019-05-18T03:53:18.341Z,100567.81
2019-05-18T03:55:46.691Z,100562.37
2019-05-18T03:58:15.180Z,100566.75
2019-05-18T04:00:44.408Z,100561.31
2019-05-18T04:03:12.908Z,100561.31
2019-05-18T04:05:41.849Z,100561.02
2019-05-18T04:08:12.728Z,100557.97
2019-05-18T04:10:40.551Z,100563.09
2019-05-18T04:13:09.305Z,100559.11
2019-05-18T04:15:37.789Z,100561.09
2019-05-18T04:18:06.265Z,100556.58
2019-05-18T04:20:34.768Z,100555.84
2019-05-18T04:23:03.257Z,100553.31
2019-05-18T04:25:31.744Z,100556.42
2019-05-18T04:28:00.309Z,100553.05
2019-05-18T04:30:28.802Z,100548.54
2019-05-18T04:32:57.546Z,100546.43
2019-05-18T04:35:26.030Z,100551.45
2019-05-18T04:37:54.873Z,100551.55
2019-05-18T04:40:23.706Z,100552.48
2019-05-18T04:42:52.448Z,100554.97
2019-05-18T04:45:20.941Z,100550.46
2019-05-18T04:47:49.484Z,100557.12
2019-05-18T04:50:18.230Z,100557.12
2019-05-18T04:52:46.741Z,100564.26
2019-05-18T04:55:15.532Z,100573.66
2019-05-18T04:57:44.028Z,100574.03
2019-05-18T05:00:12.801Z,100576.23
2019-05-18T05:02:41.280Z,100571.41
2019-05-18T05:05:10.213Z,100574.63
2019-05-18T05:07:38.685Z,100568.20
2019-05-18T05:10:07.250Z,100568.91
2019-05-18T05:12:35.788Z,100565.52
2019-05-18T05:15:04.682Z,100559.88
2019-05-18T05:17:33.185Z,100564.34
2019-05-18T05:20:01.682Z,100565.80
2019-05-18T05:22:30.547Z,100568.61
2019-05-18T05:24:59.050Z,100567.25
2019-05-18T05:27:27.550Z,100561.37
2019-05-18T05:29:56.029Z,100563.66
2019-05-18T05:32:24.531Z,100567.69
2019-05-18T05:34:53.366Z,100564.59
2019-05-18T05:37:21.856Z,100561.55
2019-05-18T05:39:50.386Z,100555.44
2019-05-18T05:42:18.924Z,100556.97
2019-05-18T05:44:47.425Z,100559.02
2019-05-18T05:47:15.907Z,100556.78
2019-05-18T05:49:44.410Z,100553.91
2019-05-18T05:52:12.928Z,100561.94
2019-05-18T05:54:41.428Z,100559.37
2019-05-18T05:57:09.934Z,100558.41
2019-05-18T05:59:38.438Z,100559.63
2019-05-18T06:02:06.931Z,100560.83
2019-05-18T06:04:35.432Z,100565.84
2019-05-18T06:07:03.915Z,100558.50
2019-05-18T06:09:32.736Z,100567.81
2019-05-18T06:12:01.228Z,100566.53
2019-05-18T06:14:29.760Z,100558.95
2019-05-18T06:16:58.268Z,100553.58
2019-05-18T06:19:26.768Z,100556.07
2019-05-18T06:21:55.256Z,100553.66
2019-05-18T06:24:23.751Z,100565.41
2019-05-18T06:26:52.269Z,100564.66
2019-05-18T06:29:21.178Z,100557.59
2019-05-18T06:31:49.668Z,100560.33
2019-05-18T06:34:18.141Z,100565.58
2019-05-18T06:36:46.748Z,100564.50
2019-05-18T06:39:15.289Z,100570.03
2019-05-18T06:41:43.793Z,100561.41
2019-05-18T06:44:12.307Z,100530.64
2019-05-18T06:46:53.750Z,100566.70
2019-05-18T06:49:22.211Z,100563.21
2019-05-18T06:51:50.706Z,100561.09
2019-05-18T06:54:19.216Z,100569.35
2019-05-18T06:56:47.721Z,100569.42
2019-05-18T06:59:16.611Z,100576.64
2019-05-18T07:01:45.069Z,100573.83
2019-05-18T07:04:13.549Z,100575.35
2019-05-18T07:06:42.099Z,100575.95
2019-05-18T07:09:14.147Z,100576.27
2019-05-18T07:11:40.844Z,100568.97
2019-05-18T07:14:09.606Z,100570.41
2019-05-18T07:16:38.405Z,100569.13
2019-05-18T07:19:06.887Z,100574.12
2019-05-18T07:21:35.385Z,100576.13
2019-05-18T07:24:04.183Z,100577.05
2019-05-18T07:26:32.709Z,100566.88
2019-05-18T07:29:05.529Z,100566.33
2019-05-18T07:31:31.747Z,100563.72
2019-05-18T07:34:00.260Z,100562.08
2019-05-18T07:36:28.761Z,100561.30
2019-05-18T07:38:57.366Z,100562.03
2019-05-18T07:41:25.852Z,100553.59
2019-05-18T07:43:54.373Z,100559.44
2019-05-18T07:46:22.980Z,100561.99
2019-05-18T07:48:51.448Z,100558.63
2019-05-18T07:51:19.955Z,100557.08
2019-05-18T07:53:48.438Z,100557.39
2019-05-18T07:56:16.934Z,100556.55
2019-05-18T07:58:45.416Z,100550.44
2019-05-18T08:01:13.935Z,100558.66
2019-05-18T08:03:42.788Z,100552.57
2019-05-18T08:06:11.265Z,100555.55
2019-05-18T08:08:39.977Z,100551.64
2019-05-18T08:11:08.491Z,100554.56
2019-05-18T08:13:37.228Z,100551.05
2019-05-18T08:16:05.758Z,100554.65
2019-05-18T08:18:34.502Z,100547.81
2019-05-18T08:21:03.128Z,100547.65
2019-05-18T08:23:31.649Z,100555.98
2019-05-18T08:26:00.515Z,100547.64
2019-05-18T08:28:29.014Z,100549.34
2019-05-18T08:30:57.512Z,100542.56
2019-05-18T08:33:25.994Z,100545.94
2019-05-18T08:35:54.480Z,100543.26
2019-05-18T08:38:23.022Z,100541.73
2019-05-18T08:40:51.540Z,100547.06
2019-05-18T08:43:20.016Z,100546.55
2019-05-18T08:45:48.589Z,100544.23
2019-05-18T08:48:17.072Z,100545.99
2019-05-18T08:50:45.594Z,100534.50
2019-05-18T08:53:14.116Z,100537.34
2019-05-18T08:55:42.632Z,100540.19
2019-05-18T08:58:12.766Z,100542.14
2019-05-18T09:00:41.178Z,100538.23
2019-05-18T09:03:09.762Z,100532.34
2019-05-18T09:05:38.273Z,100535.02
2019-05-18T09:08:06.755Z,100529.13
2019-05-18T09:10:35.227Z,100534.41
2019-05-18T09:13:03.715Z,100529.53
2019-05-18T09:15:32.219Z,100539.40
2019-05-18T09:18:00.708Z,100524.42
2019-05-18T09:20:29.268Z,100526.05
2019-05-18T09:22:57.764Z,100531.13
2019-05-18T09:25:26.269Z,100530.94
2019-05-18T09:27:54.744Z,100528.57
2019-05-18T09:30:23.278Z,100521.51
2019-05-18T09:32:51.788Z,100529.66
2019-05-18T09:35:20.299Z,100520.72
2019-05-18T09:37:48.744Z,100525.37
2019-05-18T09:40:17.240Z,100522.58
2019-05-18T09:42:46.062Z,100519.80
2019-05-18T09:45:14.546Z,100515.95
2019-05-18T09:47:43.021Z,100509.00
2019-05-18T09:50:11.523Z,100515.16
2019-05-18T09:52:45.420Z,100512.59
2019-05-18T09:55:10.267Z,100505.02
2019-05-18T09:57:38.831Z,100505.89
2019-05-18T10:00:07.703Z,100508.31
2019-05-18T10:02:36.179Z,100497.91
2019-05-18T10:05:05.410Z,100503.21
2019-05-18T10:07:33.860Z,100504.20
2019-05-18T10:10:02.356Z,100507.84
2019-05-18T10:12:30.880Z,100506.77
2019-05-18T10:14:59.402Z,100505.56
2019-05-18T10:17:27.898Z,100502.86
2019-05-18T10:19:56.396Z,100496.58
2019-05-18T10:22:24.916Z,100495.44
2019-05-18T10:24:53.425Z,100485.56
2019-05-18T10:27:21.993Z,100487.05
2019-05-18T10:29:50.507Z,100487.44
2019-05-18T10:32:18.999Z,100494.45
2019-05-18T10:34:47.560Z,100493.14
2019-05-18T10:37:16.041Z,100487.02
2019-05-18T10:39:44.532Z,100481.22
2019-05-18T10:42:13.364Z,100482.89
2019-05-18T10:44:41.879Z,100481.33
2019-05-18T10:47:10.939Z,100446.08
2019-05-18T10:49:39.467Z,100475.38
2019-05-18T10:52:07.962Z,100473.40
2019-05-18T10:54:36.485Z,100467.37
2019-05-18T10:57:04.933Z,100469.08
2019-05-18T10:59:33.649Z,100465.53
2019-05-18T11:02:02.436Z,100464.42
2019-05-18T11:04:31.107Z,100468.31
2019-05-18T11:06:59.607Z,100460.37
2019-05-18T11:09:28.091Z,100459.50
2019-05-18T11:11:56.607Z,100462.22
2019-05-18T11:14:25.080Z,100458.63
2019-05-18T11:16:53.847Z,100454.28
2019-05-18T11:19:22.346Z,100449.39
2019-05-18T11:21:50.823Z,100458.50
2019-05-18T11:24:19.324Z,100444.47
2019-05-18T11:26:48.181Z,100459.07
2019-05-18T11:29:16.695Z,100457.19
2019-05-18T11:31:45.219Z,100450.92
2019-05-18T11:34:13.732Z,100446.90
2019-05-18T11:36:42.192Z,100445.91
2019-05-18T11:39:10.713Z,100445.04
2019-05-18T11:41:39.194Z,100448.73
2019-05-18T11:44:10.669Z,100445.49
2019-05-18T11:46:38.168Z,100443.55
2019-05-18T11:49:06.685Z,100450.05
2019-05-18T11:51:35.188Z,100450.53
2019-05-18T11:54:03.729Z,100446.44
2019-05-18T11:56:32.223Z,100441.31
2019-05-18T11:59:00.723Z,100439.02
2019-05-18T12:01:29.273Z,100438.23
2019-05-18T12:03:57.771Z,100436.53
2019-05-18T12:06:26.555Z,100437.59
2019-05-18T12:08:58.514Z,100429.91
2019-05-18T12:11:25.514Z,100427.24
2019-05-18T12:13:54.000Z,100422.94
2019-05-18T12:16:22.493Z,100418.61
2019-05-18T12:18:50.970Z,100418.72
2019-05-18T12:21:19.464Z,100411.67
2019-05-18T12:23:47.933Z,100412.53
2019-05-18T12:26:16.636Z,100418.69
2019-05-18T12:28:45.115Z,100419.33
2019-05-18T12:31:13.618Z,100412.74
2019-05-18T12:33:42.380Z,100402.38
2019-05-18T12:36:10.846Z,100408.48
2019-05-18T12:38:39.338Z,100410.98
2019-05-18T12:41:07.821Z,100412.06
2019-05-18T12:43:36.325Z,100415.38
2019-05-18T12:46:04.822Z,100385.87
2019-05-18T12:48:33.282Z,100412.96
2019-05-18T12:51:01.802Z,100408.56
2019-05-18T12:53:30.280Z,100408.30
2019-05-18T12:55:58.772Z,100415.20
2019-05-18T12:58:27.241Z,100405.55
2019-05-18T13:00:55.973Z,100410.77
2019-05-18T13:03:24.454Z,100412.70
2019-05-18T13:05:52.922Z,100405.84
2019-05-18T13:08:21.393Z,100395.34
2019-05-18T13:10:49.895Z,100403.33
2019-05-18T13:13:18.378Z,100387.84
2019-05-18T13:15:46.852Z,100386.41
2019-05-18T13:18:15.322Z,100390.52
2019-05-18T13:20:43.826Z,100385.74
2019-05-18T13:23:12.542Z,100396.39
2019-05-18T13:25:41.040Z,100385.00
2019-05-18T13:28:09.633Z,100392.11
2019-05-18T13:30:38.117Z,100379.89
2019-05-18T13:33:06.607Z,100386.16
2019-05-18T13:35:35.483Z,100378.88
2019-05-18T13:38:03.971Z,100381.67
2019-05-18T13:40:32.791Z,100382.75
2019-05-18T13:43:01.263Z,100390.70
2019-05-18T13:45:29.757Z,100390.27
2019-05-18T13:47:58.293Z,100387.23
2019-05-18T13:50:26.757Z,100386.05
2019-05-18T13:52:55.284Z,100384.54
2019-05-18T13:55:23.751Z,100387.30
2019-05-18T13:57:52.266Z,100381.62
2019-05-18T14:00:22.345Z,100380.63
2019-05-18T14:02:50.833Z,100374.60
2019-05-18T14:05:19.315Z,100378.80
2019-05-18T14:07:47.806Z,100377.70
2019-05-18T14:10:16.315Z,100376.03
2019-05-18T14:12:44.818Z,100377.70
2019-05-18T14:15:13.296Z,100373.81
2019-05-18T14:17:41.768Z,100365.77
2019-05-18T14:20:12.194Z,100367.16
2019-05-18T14:22:40.626Z,100364.95
2019-05-18T14:25:18.717Z,100360.47
2019-05-18T14:27:39.423Z,100365.44
2019-05-18T14:30:08.012Z,100361.88
2019-05-18T14:32:36.502Z,100359.34
2019-05-18T14:35:05.529Z,100357.73
2019-05-18T14:37:33.994Z,100363.02
2019-05-18T14:40:02.491Z,100350.23
2019-05-18T14:42:31.001Z,100351.61
2019-05-18T14:44:59.503Z,100359.48
2019-05-18T14:47:27.981Z,100357.55
2019-05-18T14:49:56.731Z,100361.55
2019-05-18T14:52:25.227Z,100354.19
2019-05-18T14:54:53.734Z,100358.36
2019-05-18T14:57:25.449Z,100352.88
2019-05-18T14:59:52.596Z,100353.67
2019-05-18T15:02:21.438Z,100358.92
2019-05-18T15:04:53.371Z,100358.06
2019-05-18T15:07:20.431Z,100355.56
2019-05-18T15:09:49.206Z,100361.63
2019-05-18T15:12:17.721Z,100358.03
2019-05-18T15:14:46.429Z,100351.69
2019-05-18T15:17:15.019Z,100353.93
2019-05-18T15:19:43.515Z,100344.59
2019-05-18T15:22:12.031Z,100347.61
2019-05-18T15:24:40.501Z,100349.84
2019-05-18T15:27:08.995Z,100347.91
2019-05-18T15:29:37.762Z,100353.42
2019-05-18T15:32:06.273Z,100347.89
2019-05-18T15:34:35.328Z,100350.65
2019-05-18T15:37:04.424Z,100346.78
2019-05-18T15:39:33.205Z,100345.41
2019-05-18T15:42:01.717Z,100342.65
2019-05-18T15:44:30.204Z,100342.09
2019-05-18T15:46:58.690Z,100344.01
2019-05-18T15:49:27.186Z,100341.55
2019-05-18T15:51:56.041Z,100340.40
2019-05-18T15:54:24.523Z,100347.80
2019-05-18T15:56:53.094Z,100344.46
2019-05-18T15:59:21.609Z,100346.38
2019-05-18T16:01:50.102Z,100348.50
2019-05-18T16:04:18.636Z,100351.70
2019-05-18T16:06:47.164Z,100358.52
2019-05-18T16:09:16.728Z,100357.85
2019-05-18T16:11:45.225Z,100353.55
2019-05-18T16:14:13.992Z,100354.25
2019-05-18T16:16:42.476Z,100351.94
2019-05-18T16:19:11.068Z,100347.95
2019-05-18T16:21:39.854Z,100348.11
2019-05-18T16:24:08.358Z,100345.27
2019-05-18T16:26:36.840Z,100340.96
2019-05-18T16:29:05.321Z,100351.09
2019-05-18T16:31:33.801Z,100348.55
2019-05-18T16:34:02.411Z,100343.23
2019-05-18T16:36:30.890Z,100343.75
2019-05-18T16:38:59.381Z,100342.95
2019-05-18T16:41:27.916Z,100345.20
2019-05-18T16:43:56.495Z,100345.66
2019-05-18T16:46:25.006Z,100336.47
2019-05-18T16:48:53.558Z,100341.64
2019-05-18T16:51:22.069Z,100339.42
2019-05-18T16:53:50.623Z,100342.50
2019-05-18T16:56:19.119Z,100341.73
2019-05-18T16:58:47.629Z,100345.28
2019-05-18T17:01:16.138Z,100348.87
2019-05-18T17:03:44.617Z,100347.80
2019-05-18T17:06:16.288Z,100355.29
2019-05-18T17:08:43.352Z,100358.23
2019-05-18T17:11:11.845Z,100360.02
2019-05-18T17:13:40.342Z,100359.30
2019-05-18T17:16:08.882Z,100366.55
2019-05-18T17:18:37.364Z,100362.70
2019-05-18T17:21:05.887Z,100367.99
2019-05-18T17:23:34.420Z,100374.62
2019-05-18T17:26:02.908Z,100372.16
2019-05-18T17:28:31.403Z,100380.17
2019-05-18T17:30:59.910Z,100374.11
2019-05-18T17:33:28.383Z,100381.30
2019-05-18T17:36:00.416Z,100375.78
2019-05-18T17:38:27.116Z,100379.08
2019-05-18T17:40:55.650Z,100382.38
2019-05-18T17:43:24.432Z,100381.30
2019-05-18T17:45:52.934Z,100381.01
2019-05-18T17:48:21.443Z,100382.09
2019-05-18T17:50:49.984Z,100388.98
2019-05-18T17:53:20.517Z,100379.87
2019-05-18T17:55:48.905Z,100379.86
2019-05-18T17:58:19.555Z,100386.20
2019-05-18T18:00:48.122Z,100382.63
2019-05-18T18:03:16.717Z,100379.56
2019-05-18T18:05:45.273Z,100382.05
2019-05-18T18:08:16.587Z,100384.50
2019-05-18T18:10:45.794Z,100388.36
2019-05-18T18:13:14.301Z,100388.05
2019-05-18T18:15:42.885Z,100386.39
2019-05-18T18:18:11.383Z,100396.00
2019-05-18T18:20:39.976Z,100395.14
2019-05-18T18:23:08.460Z,100390.69
2019-05-18T18:25:37.334Z,100388.45
2019-05-18T18:28:06.174Z,100390.63
2019-05-18T18:30:34.704Z,100386.50
2019-05-18T18:33:03.203Z,100389.47
2019-05-18T18:35:32.045Z,100389.46
2019-05-18T18:38:00.545Z,100390.80
2019-05-18T18:40:29.050Z,100394.91
2019-05-18T18:42:57.549Z,100390.19
2019-05-18T18:45:26.062Z,100391.25
2019-05-18T18:47:54.625Z,100395.09
2019-05-18T18:50:23.150Z,100398.07
2019-05-18T18:52:51.658Z,100396.95
2019-05-18T18:55:20.182Z,100399.13
2019-05-18T18:57:48.672Z,100401.55
2019-05-18T19:00:17.176Z,100402.60
2019-05-18T19:02:45.669Z,100403.41
2019-05-18T19:05:14.219Z,100403.36
2019-05-18T19:07:42.738Z,100403.88
2019-05-18T19:10:11.253Z,100405.45
2019-05-18T19:12:40.069Z,100403.50
2019-05-18T19:15:08.675Z,100412.27
2019-05-18T19:17:37.176Z,100421.00
2019-05-18T19:20:06.048Z,100417.93
2019-05-18T19:22:34.553Z,100417.31
2019-05-18T19:25:03.087Z,100427.48
2019-05-18T19:27:31.569Z,100430.44
2019-05-18T19:30:00.086Z,100430.38
2019-05-18T19:32:28.619Z,100430.89
2019-05-18T19:34:57.123Z,100429.73
2019-05-18T19:37:26.517Z,100430.22
2019-05-18T19:39:55.212Z,100434.55
2019-05-18T19:42:23.727Z,100433.67
2019-05-18T19:44:52.235Z,100434.98
2019-05-18T19:47:20.830Z,100440.72
2019-05-18T19:49:49.372Z,100434.63
2019-05-18T19:52:17.911Z,100440.02
2019-05-18T19:54:46.448Z,100445.98
2019-05-18T19:57:14.974Z,100446.78
2019-05-18T19:59:43.461Z,100450.60
2019-05-18T20:02:11.959Z,100453.34
2019-05-18T20:04:40.464Z,100448.89
2019-05-18T20:07:08.960Z,100452.09
2019-05-18T20:09:37.488Z,100452.83
2019-05-18T20:12:06.016Z,100447.56
2019-05-18T20:14:34.793Z,100452.45
2019-05-18T20:17:03.315Z,100453.75
2019-05-18T20:19:39.369Z,100458.89
2019-05-18T20:22:02.073Z,100447.84
2019-05-18T20:24:30.541Z,100446.34
2019-05-18T20:26:59.089Z,100444.87
2019-05-18T20:29:28.001Z,100446.46
2019-05-18T20:31:56.502Z,100449.34
2019-05-18T20:34:25.080Z,100450.91
2019-05-18T20:36:53.622Z,100446.48
2019-05-18T20:39:22.204Z,100447.77
2019-05-18T20:41:50.722Z,100447.94
2019-05-18T20:44:19.224Z,100455.28
2019-05-18T20:46:47.745Z,100456.87
2019-05-18T20:49:16.597Z,100449.63
2019-05-18T20:51:45.100Z,100450.42
2019-05-18T20:54:13.601Z,100456.43
2019-05-18T20:56:42.411Z,100452.27
2019-05-18T20:59:11.029Z,100448.38
2019-05-18T21:01:39.531Z,100447.09
2019-05-18T21:04:08.055Z,100457.91
2019-05-18T21:06:36.595Z,100455.38
2019-05-18T21:09:05.798Z,100463.06
2019-05-18T21:11:34.273Z,100464.33
2019-05-18T21:14:02.804Z,100461.49
2019-05-18T21:16:31.312Z,100454.59
2019-05-18T21:18:59.816Z,100456.95
2019-05-18T21:21:28.336Z,100454.95
2019-05-18T21:23:56.827Z,100458.38
2019-05-18T21:26:25.567Z,100454.09
2019-05-18T21:28:59.403Z,100460.63
2019-05-18T21:31:24.351Z,100457.84
2019-05-18T21:33:52.860Z,100463.84
2019-05-18T21:36:21.340Z,100462.73
2019-05-18T21:38:49.860Z,100461.00
2019-05-18T21:41:18.647Z,100459.62
2019-05-18T21:43:47.169Z,100466.93
2019-05-18T21:46:15.674Z,100463.56
2019-05-18T21:48:44.195Z,100465.29
2019-05-18T21:51:13.124Z,100466.08
2019-05-18T21:53:41.622Z,100462.28
2019-05-18T21:56:10.105Z,100466.38
2019-05-18T21:58:38.598Z,100462.81
2019-05-18T22:01:07.093Z,100458.87
2019-05-18T22:03:35.618Z,100460.22
2019-05-18T22:06:04.481Z,100460.10
2019-05-18T22:08:32.918Z,100456.16
2019-05-18T22:11:01.451Z,100454.34
2019-05-18T22:13:29.963Z,100455.19
2019-05-18T22:15:58.460Z,100453.70
2019-05-18T22:18:27.041Z,100456.12
2019-05-18T22:20:55.608Z,100456.12
2019-05-18T22:23:24.298Z,100459.06
2019-05-18T22:25:56.689Z,100461.14
2019-05-18T22:28:23.335Z,100450.15
2019-05-18T22:30:51.881Z,100455.30
2019-05-18T22:33:20.744Z,100455.87
2019-05-18T22:35:49.547Z,100451.45
2019-05-18T22:38:19.252Z,100450.28
2019-05-18T22:40:47.944Z,100449.60
2019-05-18T22:43:16.661Z,100449.17
2019-05-18T22:45:45.275Z,100446.94
2019-05-18T22:48:15.771Z,100446.38
2019-05-18T22:50:44.407Z,100442.22
2019-05-18T22:53:12.976Z,100451.63
2019-05-18T22:55:41.490Z,100449.76
2019-05-18T22:58:12.659Z,100439.08
2019-05-18T23:00:42.103Z,100439.55
2019-05-18T23:03:10.555Z,100440.79
2019-05-18T23:05:40.931Z,100441.04
2019-05-18T23:08:09.453Z,100442.22
2019-05-18T23:10:38.217Z,100444.48
2019-05-18T23:13:09.891Z,100443.30
2019-05-18T23:15:38.413Z,100443.83
2019-05-18T23:18:07.267Z,100441.28
2019-05-18T23:20:35.808Z,100439.61
2019-05-18T23:23:07.690Z,100439.66
2019-05-18T23:25:36.228Z,100433.54
2019-05-18T23:28:04.781Z,100434.91
2019-05-18T23:30:33.351Z,100429.20
2019-05-18T23:33:01.892Z,100425.88
2019-05-18T23:35:30.434Z,100424.75
2019-05-18T23:37:59.015Z,100421.40
2019-05-18T23:40:27.545Z,100425.74
2019-05-18T23:42:55.987Z,100429.77
2019-05-18T23:45:25.057Z,100427.44
2019-05-18T23:47:53.827Z,100416.70
2019-05-18T23:50:22.335Z,100424.36
2019-05-18T23:52:50.906Z,100429.69
2019-05-18T23:55:19.626Z,100423.25
2019-05-18T23:57:48.191Z,100423.75
